createdAt,value
2019-05-29T00:03:42.278Z,1.65
2019-05-29T00:08:46.626Z,1.30
2019-05-29T00:13:50.963Z,1.20
2019-05-29T00:18:58.261Z,1.37
2019-05-29T00:24:01.407Z,1.27
2019-05-29T00:29:05.757Z,1.82
2019-05-29T00:34:11.267Z,1.00
2019-05-29T00:39:16.826Z,1.17
2019-05-29T00:44:33.592Z,1.10
2019-05-29T00:49:27.563Z,1.32
2019-05-29T00:54:31.919Z,1.02
2019-05-29T00:59:36.317Z,0.90
2019-05-29T01:04:40.653Z,0.98
2019-05-29T01:09:44.977Z,0.85
2019-05-29T01:14:50.582Z,1.10
2019-05-29T01:19:55.656Z,1.20
2019-05-29T01:25:00.007Z,1.25
2019-05-29T01:30:07.856Z,1.30
2019-05-29T01:35:13.683Z,1.20
2019-05-29T01:40:23.173Z,1.30
2019-05-29T01:45:24.363Z,1.10
2019-05-29T01:50:28.706Z,1.40
2019-05-29T01:55:33.528Z,1.20
2019-05-29T02:00:38.693Z,1.12
2019-05-29T02:05:43.033Z,1.40
2019-05-29T02:10:48.443Z,1.40
2019-05-29T02:15:52.788Z,1.50
2019-05-29T02:20:57.154Z,1.22
2019-05-29T02:26:03.619Z,1.45
2019-05-29T02:31:07.976Z,1.52
2019-05-29T02:36:12.402Z,1.32
2019-05-29T02:41:18.915Z,1.42
2019-05-29T02:46:23.987Z,1.30
2019-05-29T02:51:37.827Z,1.30
2019-05-29T02:56:42.877Z,2.10
2019-05-29T03:01:47.302Z,1.40
2019-05-29T03:06:52.759Z,1.47
2019-05-29T03:12:00.065Z,1.70
2019-05-29T03:17:03.123Z,1.40
2019-05-29T03:22:07.546Z,1.90
2019-05-29T03:27:11.974Z,1.80
2019-05-29T03:32:17.178Z,1.55
2019-05-29T03:37:21.529Z,1.77
2019-05-29T03:42:26.455Z,1.77
2019-05-29T03:47:31.522Z,2.37
2019-05-29T03:52:38.636Z,1.75
2019-05-29T03:57:43.054Z,1.60
2019-05-29T04:02:47.402Z,1.72
2019-05-29T04:07:51.756Z,1.67
2019-05-29T04:12:56.715Z,1.90
2019-05-29T04:18:03.334Z,1.55
2019-05-29T04:23:08.310Z,1.70
2019-05-29T04:28:12.746Z,1.60
2019-05-29T04:33:17.146Z,1.62
2019-05-29T04:38:21.499Z,1.80
2019-05-29T04:43:25.905Z,1.57
2019-05-29T04:48:31.461Z,1.70
2019-05-29T04:53:39.734Z,1.80
2019-05-29T04:58:44.047Z,1.60
2019-05-29T05:03:48.409Z,1.42
2019-05-29T05:08:52.746Z,1.65
2019-05-29T05:13:57.114Z,2.08
2019-05-29T05:19:01.471Z,1.60
2019-05-29T05:24:05.871Z,1.40
2019-05-29T05:29:10.267Z,1.42
2019-05-29T05:34:17.563Z,1.90
2019-05-29T05:39:22.141Z,1.60
2019-05-29T05:44:26.905Z,1.77
2019-05-29T05:49:31.344Z,1.90
2019-05-29T05:54:35.667Z,1.37
2019-05-29T05:59:40.018Z,1.50
2019-05-29T06:04:44.459Z,1.35
2019-05-29T06:09:48.862Z,1.57
2019-05-29T06:14:53.193Z,1.35
2019-05-29T06:19:57.547Z,1.20
2019-05-29T06:25:03.435Z,1.42
2019-05-29T06:30:08.884Z,1.72
2019-05-29T06:35:13.709Z,2.20
2019-05-29T06:40:33.972Z,1.40
2019-05-29T06:45:39.857Z,1.20
2019-05-29T06:50:44.568Z,1.42
2019-05-29T06:55:54.279Z,1.07
2019-05-29T07:00:55.062Z,1.17
2019-05-29T07:05:59.450Z,1.20
2019-05-29T07:11:03.788Z,0.93
2019-05-29T07:16:08.134Z,1.20
2019-05-29T07:21:12.491Z,1.30
2019-05-29T07:26:17.391Z,0.90
2019-05-29T07:31:21.742Z,0.80
2019-05-29T07:36:26.237Z,1.10
2019-05-29T07:41:30.595Z,0.88
2019-05-29T07:46:34.955Z,0.88
2019-05-29T07:51:40.491Z,1.10
2019-05-29T07:56:49.322Z,1.52
2019-05-29T08:01:53.675Z,1.47
2019-05-29T08:06:58.041Z,1.12
2019-05-29T08:12:02.534Z,0.95
2019-05-29T08:17:08.616Z,1.17
2019-05-29T08:22:30.349Z,1.22
2019-05-29T08:27:24.071Z,1.00
2019-05-29T08:32:36.416Z,0.90
2019-05-29T08:37:40.852Z,0.93
2019-05-29T08:42:47.301Z,0.80
2019-05-29T08:48:04.586Z,1.10
2019-05-29T08:53:09.022Z,0.93
2019-05-29T08:58:13.359Z,1.25
2019-05-29T09:03:21.845Z,1.00
2019-05-29T09:08:28.890Z,2.27
2019-05-29T09:13:35.205Z,1.20
2019-05-29T09:18:40.296Z,1.10
2019-05-29T09:23:44.647Z,0.65
2019-05-29T09:28:49.095Z,0.72
2019-05-29T09:33:53.485Z,1.00
2019-05-29T09:38:57.880Z,1.00
2019-05-29T09:44:02.318Z,1.47
2019-05-29T09:49:06.784Z,1.10
2019-05-29T09:54:11.292Z,0.90
2019-05-29T09:59:15.719Z,0.98
2019-05-29T10:04:20.061Z,0.80
2019-05-29T10:09:24.852Z,0.90
2019-05-29T10:14:29.214Z,0.95
2019-05-29T10:19:33.614Z,1.20
2019-05-29T10:24:44.087Z,1.10
2019-05-29T10:29:51.700Z,1.07
2019-05-29T10:34:55.821Z,1.17
2019-05-29T10:40:00.247Z,0.90
2019-05-29T10:45:09.383Z,0.98
2019-05-29T10:50:15.871Z,1.00
2019-05-29T10:55:23.391Z,1.00
2019-05-29T11:00:27.727Z,0.95
2019-05-29T11:05:32.804Z,1.17
2019-05-29T11:10:37.819Z,1.10
2019-05-29T11:15:42.186Z,0.80
2019-05-29T11:20:49.331Z,1.12
2019-05-29T11:25:54.446Z,0.95
2019-05-29T11:31:05.226Z,1.47
2019-05-29T11:36:10.738Z,0.80
2019-05-29T11:41:25.663Z,0.80
2019-05-29T11:46:18.335Z,1.00
2019-05-29T11:51:23.874Z,1.00
2019-05-29T11:56:28.539Z,1.10
2019-05-29T12:01:48.966Z,1.10
2019-05-29T12:06:40.917Z,1.10
2019-05-29T12:11:45.325Z,1.20
2019-05-29T12:16:49.740Z,1.20
2019-05-29T12:21:54.466Z,0.82
2019-05-29T12:26:58.940Z,1.00
2019-05-29T12:32:08.242Z,1.00
2019-05-29T12:37:09.585Z,1.12
2019-05-29T12:42:14.064Z,0.93
2019-05-29T12:47:18.435Z,1.12
2019-05-29T12:52:22.768Z,0.90
2019-05-29T12:57:27.147Z,0.90
2019-05-29T13:02:31.523Z,1.00
2019-05-29T13:07:35.940Z,1.00
2019-05-29T13:12:40.352Z,1.10
2019-05-29T13:17:44.811Z,1.00
2019-05-29T13:22:50.139Z,1.00
2019-05-29T13:27:57.333Z,1.10
2019-05-29T13:33:03.607Z,1.02
2019-05-29T13:38:07.370Z,1.00
2019-05-29T13:43:15.570Z,1.10
2019-05-29T13:48:18.095Z,0.75
2019-05-29T13:53:22.533Z,1.00
2019-05-29T13:58:27.066Z,1.00
2019-05-29T14:03:31.163Z,1.10
2019-05-29T14:08:35.425Z,1.30
2019-05-29T14:13:39.841Z,1.10
2019-05-29T14:18:44.309Z,1.10
2019-05-29T14:23:48.719Z,1.20
2019-05-29T14:28:53.088Z,1.05
2019-05-29T14:34:00.923Z,1.00
2019-05-29T14:39:07.727Z,1.42
2019-05-29T14:44:12.163Z,1.10
2019-05-29T14:49:16.675Z,0.98
2019-05-29T14:54:21.229Z,1.27
2019-05-29T14:59:25.567Z,1.05
2019-05-29T15:04:29.898Z,1.40
2019-05-29T15:09:34.261Z,1.00
2019-05-29T15:14:38.625Z,1.10
2019-05-29T15:19:43.082Z,1.00
2019-05-29T15:25:01.362Z,1.05
2019-05-29T15:29:53.605Z,1.22
2019-05-29T15:34:59.584Z,1.30
2019-05-29T15:40:06.965Z,1.30
2019-05-29T15:45:14.034Z,1.20
2019-05-29T15:50:19.371Z,1.30
2019-05-29T15:55:33.258Z,0.90
2019-05-29T16:00:30.840Z,1.17
2019-05-29T16:05:35.175Z,1.30
2019-05-29T16:10:43.884Z,1.37
2019-05-29T16:15:48.218Z,1.50
2019-05-29T16:20:52.562Z,1.50
2019-05-29T16:25:56.948Z,1.87
2019-05-29T16:31:01.314Z,1.80
2019-05-29T16:36:05.647Z,1.72
2019-05-29T16:41:09.988Z,1.80
2019-05-29T16:46:18.460Z,1.60
2019-05-29T16:51:20.920Z,1.30
2019-05-29T16:56:25.551Z,1.42
2019-05-29T17:01:30.072Z,1.30
2019-05-29T17:06:34.619Z,1.30
2019-05-29T17:11:38.963Z,1.55
2019-05-29T17:16:43.317Z,1.10
2019-05-29T17:21:48.097Z,1.32
2019-05-29T17:26:53.674Z,1.70
2019-05-29T17:31:58.011Z,1.50
2019-05-29T17:37:02.372Z,1.32
2019-05-29T17:42:06.708Z,1.40
2019-05-29T17:47:11.071Z,1.75
2019-05-29T17:52:17.764Z,1.40
2019-05-29T17:57:22.179Z,1.57
2019-05-29T18:02:27.621Z,1.20
2019-05-29T18:07:32.230Z,1.50
2019-05-29T18:12:38.068Z,1.47
2019-05-29T18:17:44.343Z,1.75
2019-05-29T18:22:49.234Z,1.52
2019-05-29T18:27:53.846Z,1.50
2019-05-29T18:32:58.231Z,1.40
2019-05-29T18:38:02.608Z,1.15
2019-05-29T18:43:07.374Z,1.30
2019-05-29T18:48:11.901Z,1.27
2019-05-29T18:53:16.304Z,1.70
2019-05-29T18:58:22.205Z,2.92
2019-05-29T19:03:29.613Z,1.60
2019-05-29T19:08:35.687Z,1.60
2019-05-29T19:13:42.210Z,1.40
2019-05-29T19:18:46.599Z,2.55
2019-05-29T19:23:50.974Z,1.30
2019-05-29T19:28:55.431Z,1.85
2019-05-29T19:33:59.827Z,2.15
2019-05-29T19:39:07.122Z,1.90
2019-05-29T19:44:11.602Z,1.62
2019-05-29T19:49:16.165Z,1.92
2019-05-29T19:54:21.804Z,2.17
2019-05-29T19:59:27.994Z,3.08
2019-05-29T20:04:34.715Z,2.02
2019-05-29T20:09:40.109Z,2.58
2019-05-29T20:14:44.509Z,2.40
2019-05-29T20:19:48.884Z,2.20
2019-05-29T20:24:54.836Z,2.60
2019-05-29T20:29:59.185Z,2.80
2019-05-29T20:35:04.758Z,2.10
2019-05-29T20:40:10.215Z,2.30
2019-05-29T20:45:15.605Z,2.50
2019-05-29T20:50:20.062Z,2.77
2019-05-29T20:55:24.422Z,2.20
2019-05-29T21:00:28.828Z,2.35
2019-05-29T21:05:34.632Z,3.35
2019-05-29T21:10:40.226Z,3.27
2019-05-29T21:15:45.655Z,3.67
2019-05-29T21:20:50.080Z,3.02
2019-05-29T21:25:54.412Z,5.30
2019-05-29T21:30:58.770Z,3.30
2019-05-29T21:36:04.415Z,3.12
2019-05-29T21:41:08.771Z,3.40
2019-05-29T21:46:13.140Z,3.25
2019-05-29T21:51:18.460Z,2.75
2019-05-29T21:56:24.068Z,2.75
2019-05-29T22:01:28.931Z,2.62
2019-05-29T22:06:33.287Z,3.05
2019-05-29T22:11:37.688Z,2.80
2019-05-29T22:16:43.131Z,2.30
2019-05-29T22:21:47.646Z,2.27
2019-05-29T22:26:53.131Z,2.15
2019-05-29T22:31:57.737Z,2.10
2019-05-29T22:37:02.085Z,2.35
2019-05-29T22:42:07.684Z,1.70
2019-05-29T22:47:12.056Z,1.90
2019-05-29T22:52:18.729Z,2.05
2019-05-29T22:57:23.065Z,1.92
2019-05-29T23:02:27.562Z,2.00
2019-05-29T23:07:32.118Z,2.30
2019-05-29T23:12:36.493Z,2.33
2019-05-29T23:17:40.899Z,2.27
2019-05-29T23:22:46.330Z,1.87
2019-05-29T23:27:52.768Z,1.90
2019-05-29T23:32:58.989Z,1.85
2019-05-29T23:38:03.591Z,2.10
2019-05-29T23:43:09.103Z,1.70
2019-05-29T23:48:13.439Z,1.90
2019-05-29T23:53:17.850Z,2.05
2019-05-29T23:58:23.411Z,2.08
